Anadarko, Texas
Current Conditions -  °F | °C
As of 2:15 AM on Sunday 23 Nov 2014 (Local Time) from KRFI Reporting Station
Moderate Rain Moderate Rain  
Wind Chill: 60°   Ceiling: 7500
Heat Index: 60°   Visibility: 5mi
Dew Point: 60°   Wind: 12mph
Humidity: 100%   Direction: 160°SSE
Pressure: 29.7"   Gusts: NA
Location:  31.9447°N, 94.855°W
Report Text: KRFI 230815Z AUTO 16010KT 5SM RA SCT006 SCT025 OVC075 16/16 A2970 RMK AO2 T01550155
Loading
Personal Weather Stations






























Interactive Weather Map New forecast layout! Learn more

10-Day Weather Forecast

Advertisements
Track Severe Weather on mobile